Hoboken, Belgium
Current Conditions -  °F | °C
As of 2:50 PM on Saturday 25 Oct 2014 (Local Time) from EBAW Reporting Station
Broken Clouds Broken Clouds  
Wind Chill: 59°   Ceiling: 2800
Heat Index: 59°   Visibility: 6mi
Dew Point: 54°   Wind: 7mph
Humidity: 82%   Direction: 230°SW
Pressure: 30.09"   Gusts: NA
Location:  51.18°N, 4.35°E
Report Text: EBAW 251250Z 23006KT 200V260 9000 FEW012 BKN028 15/12 Q1019 NOSIG
Loading
Personal Weather Stations






























Interactive Weather Map New forecast layout! Learn more

10-Day Weather Forecast

Advertisements
Track Severe Weather on mobile